Catheys Valley, CA (95306)

12:07 AM PST on December 03, 2016 (GMT -0800)
Ben Hur/Buckeye | | Change Station

Elev 1467 ft 37.42 °N, 119.97 °W | Updated 8 seconds ago

Clear
Clear
25.7 °F
Feels Like 26 °F
N
0.0
Wind Variable Wind from SW

Today
High -- | Low -- °F
--% Chance of Precip.
Yesterday
High -- | Low -- °F
Precip. -- in
Pressure 30.23 in
Visibility 4.0 miles
Clouds Clear
Windchill 26 °F
Dew Point 23 °F
Humidity 91%
Rainfall 0.00 in
Snow Depth Not available.
6:58 AM 4:42 PM
Waxing Crescent, 13% visible
METAR KMCE 030653Z AUTO 11004KT 4SM BR CLR 03/02 A3023 RMK AO2 SLP236 T00280017 TSNO
Pressure 30.23 in
Visibility 4.0 miles
Clouds Clear
Windchill 26 °F
Dew Point 23 °F
Humidity 91%
Rainfall 0.00 in
Snow Depth Not available.
6:58 AM 4:42 PM
Waxing Crescent, 13% visible
METAR KMCE 030653Z AUTO 11004KT 4SM BR CLR 03/02 A3023 RMK AO2 SLP236 T00280017 TSNO

10-Day Weather Forecast

Almanac

Astronomy

Dec. 03, 2016 Rise Set
Actual Time
Civil Twilight
Nautical Twilight
Astronomical Twilight
Moon
Length of Visible Light
Length of Day
Tomorrow will be .
, % of the Moon is Illuminated

Today's Extremes

State Highs State Lows

Community

WunderPhotos

Upload Photos

1,955,432 photos uploaded!

WunderBlog® & News

Nearby

Air Quality

  Air Quality AQ Index Pollutant
Not available.

Snow Depth

Station Depth Elevation

Earthquake Activity

City Distance Mag. Time & Date
Minimum magnitude displayed is 2.5.

Coastal Water Temperatures

Place Temperature

Stations

Nearby Weather Stations

Station Location Temp. Windchill Dew Point Humidity Wind Precip. Elev Updated Type
                   

Watches & Warnings

There are currently no watches in effect.